Time;durP1;ratioP1;P1;durP2;ratioP2;P2;SDS_P1;SDS_P2;PMS_P1;PMS_P2;Temp;Humidity;BMP_temperature;BMP_pressure;BME280_temperature;BME280_humidity;BME280_pressure;Samples;Min_cycle;Max_cycle;Signal;HPM_P1;HPM_P2
2022/08/02 00:01:53;;;;;;;1.77;1.45;;;17.40;99.90;;;;;;4209345;28;20097;-63
2022/08/02 00:03:54;;;;;;;1.58;1.48;;;17.50;99.90;;;;;;4211181;28;20066;-63
2022/08/02 00:05:56;;;;;;;1.67;1.58;;;17.40;99.90;;;;;;4210255;28;20028;-63
2022/08/02 00:07:57;;;;;;;2.13;1.70;;;17.40;99.90;;;;;;4211610;28;20085;-62
2022/08/02 00:09:58;;;;;;;2.60;1.48;;;17.40;99.90;;;;;;4191922;28;20036;-63
2022/08/02 00:11:59;;;;;;;3.10;1.40;;;17.40;99.90;;;;;;4210835;28;20077;-65
2022/08/02 00:14:00;;;;;;;2.20;1.27;;;17.40;99.90;;;;;;4210487;28;20022;-63
2022/08/02 00:16:02;;;;;;;3.63;1.58;;;17.40;99.90;;;;;;4211197;28;20078;-63
2022/08/02 00:18:03;;;;;;;1.60;1.50;;;17.30;99.90;;;;;;4210272;28;20066;-63
2022/08/02 00:20:05;;;;;;;2.72;1.50;;;17.30;99.90;;;;;;4211207;28;20032;-73
2022/08/02 00:22:06;;;;;;;2.58;1.85;;;17.30;99.90;;;;;;4210147;28;20062;-68
2022/08/02 00:24:07;;;;;;;1.42;1.33;;;17.30;99.90;;;;;;4211045;28;20020;-63
2022/08/02 00:26:09;;;;;;;2.25;1.45;;;17.30;99.90;;;;;;4210209;28;20036;-63
2022/08/02 00:28:10;;;;;;;1.90;1.67;;;17.30;99.90;;;;;;4210700;28;20086;-62
2022/08/02 00:30:11;;;;;;;1.92;1.77;;;17.20;99.90;;;;;;4210474;28;20024;-63
2022/08/02 00:32:12;;;;;;;2.88;1.55;;;17.20;99.90;;;;;;4210581;28;20036;-62
2022/08/02 00:34:14;;;;;;;1.50;1.40;;;17.20;99.90;;;;;;4209737;28;20043;-63
2022/08/02 00:36:15;;;;;;;1.58;1.25;;;17.20;99.90;;;;;;4209919;28;20028;-63
2022/08/02 00:38:16;;;;;;;2.20;1.67;;;17.20;99.90;;;;;;4211489;28;20032;-62
2022/08/02 00:40:22;;;;;;;2.70;1.50;;;17.10;99.90;;;;;;4208973;28;20466;-63
2022/08/02 00:42:23;;;;;;;1.70;1.50;;;17.10;99.90;;;;;;4210956;28;20020;-70
2022/08/02 00:44:24;;;;;;;1.73;1.63;;;17.10;99.90;;;;;;4211224;28;20484;-63
2022/08/02 00:46:25;;;;;;;1.50;1.40;;;17.10;99.90;;;;;;4214293;28;20039;-64
2022/08/02 00:48:26;;;;;;;2.22;1.85;;;17.10;99.90;;;;;;4213348;28;20475;-64
2022/08/02 00:50:28;;;;;;;4.40;1.70;;;17.00;99.90;;;;;;4212903;28;20032;-63
2022/08/02 00:52:29;;;;;;;2.03;1.80;;;17.00;99.90;;;;;;4212390;28;20043;-63
2022/08/02 00:54:30;;;;;;;1.45;1.35;;;17.00;99.90;;;;;;4214616;28;20081;-63
2022/08/02 00:56:32;;;;;;;1.63;1.33;;;17.00;99.90;;;;;;4213342;28;20032;-63
2022/08/02 00:58:33;;;;;;;1.63;1.52;;;17.00;99.90;;;;;;4214149;28;20062;-72
2022/08/02 01:00:34;;;;;;;2.92;1.70;;;17.00;99.90;;;;;;4213574;28;20024;-68
2022/08/02 01:02:35;;;;;;;1.83;1.50;;;17.00;99.90;;;;;;4212879;28;20093;-69
2022/08/02 01:04:36;;;;;;;2.20;1.90;;;17.00;99.90;;;;;;4212566;28;20457;-65
2022/08/02 01:06:40;;;;;;;1.70;1.60;;;16.90;99.90;;;;;;4213104;28;20098;-71
2022/08/02 01:08:41;;;;;;;2.47;1.77;;;16.90;99.90;;;;;;4214616;28;20809;-64
2022/08/02 01:10:42;;;;;;;1.73;1.60;;;16.90;99.90;;;;;;4213228;28;20028;-63
2022/08/02 01:12:44;;;;;;;2.20;1.92;;;16.90;99.90;;;;;;4214288;28;20020;-63
2022/08/02 01:14:48;;;;;;;2.15;1.95;;;16.80;99.90;;;;;;4194468;28;20032;-63
2022/08/02 01:17:19;;;;;;;1.98;1.77;;;16.80;99.90;;;;;;4214050;28;20422;-63
2022/08/02 01:19:59;;;;;;;2.35;2.20;;;16.80;99.90;;;;;;4205564;28;20442;-64
2022/08/02 01:22:29;;;;;;;3.78;1.90;;;16.80;99.90;;;;;;4208563;28;20089;-68
2022/08/02 01:24:46;;;;;;;3.72;2.47;;;16.70;99.90;;;;;;4213401;28;20040;-63
2022/08/02 01:27:02;;;;;;;2.05;1.92;;;16.70;99.90;;;;;;4212745;28;20024;-63
2022/08/02 01:29:25;;;;;;;5.00;2.17;;;16.60;99.90;;;;;;4212735;28;20043;-64
2022/08/02 01:31:45;;;;;;;3.35;2.13;;;16.60;99.90;;;;;;4212495;28;20081;-63
2022/08/02 01:34:04;;;;;;;2.65;1.65;;;16.60;99.90;;;;;;4213749;28;20060;-63
2022/08/02 01:36:10;;;;;;;4.03;1.83;;;16.60;99.90;;;;;;4212008;28;20488;-62
2022/08/02 01:38:36;;;;;;;3.22;2.15;;;16.50;99.90;;;;;;4214061;28;20082;-63
2022/08/02 01:40:40;;;;;;;2.88;2.17;;;16.50;99.90;;;;;;4212630;28;20035;-64
2022/08/02 01:42:45;;;;;;;6.32;2.10;;;16.40;99.90;;;;;;4213878;28;20081;-63
2022/08/02 01:44:49;;;;;;;3.03;2.10;;;16.40;99.90;;;;;;4211497;28;20454;-62
2022/08/02 01:46:57;;;;;;;1.83;1.73;;;16.40;99.90;;;;;;4212992;28;20090;-65
2022/08/02 01:49:05;;;;;;;2.83;2.00;;;16.40;99.90;;;;;;4212510;28;20039;-63
2022/08/02 01:51:09;;;;;;;2.15;1.98;;;16.30;99.90;;;;;;4213193;28;20085;-63
2022/08/02 01:53:12;;;;;;;1.73;1.63;;;16.30;99.90;;;;;;4212481;28;20345;-63
2022/08/02 01:55:20;;;;;;;3.75;2.00;;;16.20;99.90;;;;;;4212150;28;20044;-63
2022/08/02 01:57:23;;;;;;;4.30;2.45;;;16.20;99.90;;;;;;4212467;28;20077;-63
2022/08/02 01:59:26;;;;;;;4.40;2.33;;;16.20;99.90;;;;;;4213581;28;20028;-69
2022/08/02 02:01:29;;;;;;;2.97;2.08;;;16.20;99.90;;;;;;4211462;28;20109;-62
2022/08/02 02:03:33;;;;;;;1.88;1.77;;;16.30;99.90;;;;;;4212577;28;20446;-64
2022/08/02 02:05:35;;;;;;;6.43;1.80;;;16.30;99.90;;;;;;4211769;28;20089;-62
2022/08/02 02:07:37;;;;;;;2.75;1.85;;;16.30;99.90;;;;;;4212845;28;20357;-63
2022/08/02 02:09:39;;;;;;;2.53;1.77;;;16.30;99.90;;;;;;4212941;28;20016;-62
2022/08/02 02:11:46;;;;;;;2.10;1.90;;;16.30;99.90;;;;;;4212351;28;20032;-64
2022/08/02 02:13:49;;;;;;;3.28;2.25;;;16.30;99.90;;;;;;4212395;28;20077;-62
2022/08/02 02:15:51;;;;;;;2.08;1.75;;;16.30;99.90;;;;;;4212031;28;20032;-63
2022/08/02 02:17:53;;;;;;;2.33;1.88;;;16.30;99.90;;;;;;4212435;28;20119;-63
2022/08/02 02:19:58;;;;;;;1.92;1.83;;;16.30;99.90;;;;;;4211978;28;20464;-62
2022/08/02 02:22:00;;;;;;;1.83;1.73;;;16.30;99.90;;;;;;4212827;28;20061;-63
2022/08/02 02:24:02;;;;;;;2.58;1.83;;;16.30;99.90;;;;;;4210570;28;20078;-62
2022/08/02 02:26:05;;;;;;;3.97;1.85;;;16.40;99.90;;;;;;4212714;28;20020;-62
2022/08/02 02:28:13;;;;;;;4.00;2.50;;;16.40;99.90;;;;;;4211898;28;20472;-63
2022/08/02 02:30:16;;;;;;;3.95;2.25;;;16.30;99.90;;;;;;4212834;28;20032;-61
2022/08/02 02:32:18;;;;;;;2.08;1.88;;;16.30;99.90;;;;;;4211657;28;20043;-63
2022/08/02 02:34:32;;;;;;;2.40;2.20;;;16.30;99.90;;;;;;4212937;28;20541;-63
2022/08/02 02:36:34;;;;;;;3.92;2.10;;;16.30;99.90;;;;;;4211477;28;20024;-63
2022/08/02 02:38:37;;;;;;;2.67;2.47;;;16.20;99.90;;;;;;4213056;28;20028;-63
2022/08/02 02:40:40;;;;;;;3.58;2.40;;;16.20;99.90;;;;;;4211098;28;20101;-66
2022/08/02 02:42:42;;;;;;;2.60;2.13;;;16.20;99.90;;;;;;4211434;28;20040;-64
2022/08/02 02:44:46;;;;;;;2.75;2.05;;;16.20;99.90;;;;;;4211275;28;20061;-65
2022/08/02 02:46:51;;;;;;;3.25;2.10;;;16.20;99.90;;;;;;4211636;28;20036;-64
2022/08/02 02:48:53;;;;;;;2.33;1.98;;;16.10;99.90;;;;;;4211523;28;20012;-63
2022/08/02 02:50:55;;;;;;;4.03;2.10;;;16.10;99.90;;;;;;4211503;28;20040;-63
2022/08/02 02:52:58;;;;;;;2.30;2.10;;;16.10;99.90;;;;;;4211892;28;20468;-62
2022/08/02 02:55:00;;;;;;;2.88;2.25;;;16.10;99.90;;;;;;4211823;28;20422;-64
2022/08/02 02:57:04;;;;;;;2.30;2.10;;;16.00;99.90;;;;;;4212012;28;20426;-61
2022/08/02 02:59:07;;;;;;;2.58;2.05;;;16.00;99.90;;;;;;4210873;28;20044;-62
2022/08/02 03:01:27;;;;;;;2.97;2.53;;;16.00;99.90;;;;;;4211898;28;20081;-62
2022/08/02 03:03:29;;;;;;;2.60;2.40;;;16.00;99.90;;;;;;4211373;28;20464;-66
2022/08/02 03:05:30;;;;;;;6.20;2.45;;;16.00;99.90;;;;;;4212096;28;20051;-62
2022/08/02 03:07:33;;;;;;;3.67;2.60;;;16.00;99.90;;;;;;4210115;28;20498;-63
2022/08/02 03:09:34;;;;;;;5.53;2.53;;;16.00;99.90;;;;;;4211388;28;20036;-63
2022/08/02 03:11:37;;;;;;;2.90;2.05;;;16.00;99.90;;;;;;4210057;28;20101;-63
2022/08/02 03:13:39;;;;;;;2.80;2.60;;;16.00;99.90;;;;;;4212046;28;20027;-63
2022/08/02 03:15:41;;;;;;;3.92;2.58;;;16.00;99.90;;;;;;4211184;28;20036;-64
2022/08/02 03:17:44;;;;;;;3.30;2.53;;;16.00;99.90;;;;;;4212172;28;20024;-63
2022/08/02 03:19:45;;;;;;;2.40;2.20;;;16.00;99.90;;;;;;4210500;28;20053;-66
2022/08/02 03:21:48;;;;;;;2.58;2.38;;;16.00;99.90;;;;;;4212012;28;20082;-62
2022/08/02 03:23:49;;;;;;;2.60;2.40;;;16.00;99.90;;;;;;4210749;28;20044;-62
2022/08/02 03:25:51;;;;;;;2.75;2.42;;;16.10;99.90;;;;;;4211353;28;20055;-62
2022/08/02 03:27:52;;;;;;;4.35;1.95;;;16.20;99.90;;;;;;4210269;28;20069;-62
2022/08/02 03:29:54;;;;;;;2.63;2.10;;;16.50;99.90;;;;;;4211726;28;20415;-63
2022/08/02 03:31:56;;;;;;;2.08;1.85;;;16.80;99.90;;;;;;4190225;28;20052;-74
2022/08/02 03:34:00;;;;;;;2.72;2.08;;;17.10;99.90;;;;;;4210259;28;21101;-65
2022/08/02 03:36:08;;;;;;;5.78;2.30;;;17.40;99.90;;;;;;4204205;28;20074;-65
2022/08/02 03:38:12;;;;;;;2.30;2.10;;;17.80;99.90;;;;;;4210312;28;20082;-63
2022/08/02 03:40:13;;;;;;;2.40;2.20;;;18.10;99.90;;;;;;4211795;28;20028;-64
2022/08/02 03:42:15;;;;;;;3.15;2.15;;;18.40;99.90;;;;;;4210763;28;20073;-66
2022/08/02 03:44:17;;;;;;;3.30;1.80;;;18.70;99.90;;;;;;4211706;28;20089;-69
2022/08/02 03:46:22;;;;;;;2.15;2.03;;;19.10;99.90;;;;;;4210496;28;20058;-65
2022/08/02 03:48:25;;;;;;;3.10;1.90;;;19.50;99.90;;;;;;4210429;28;20028;-65
2022/08/02 03:50:27;;;;;;;4.07;1.95;;;19.80;99.90;;;;;;4210018;28;20520;-63
2022/08/02 03:52:30;;;;;;;6.70;1.90;;;20.10;99.90;;;;;;4209968;28;20044;-64
2022/08/02 03:54:31;;;;;;;3.67;2.05;;;20.40;99.90;;;;;;4209596;28;20105;-64
2022/08/02 03:56:33;;;;;;;2.28;1.73;;;20.60;99.90;;;;;;4211528;28;20069;-64
2022/08/02 03:58:34;;;;;;;1.77;1.60;;;21.00;99.90;;;;;;4209559;28;20024;-66
2022/08/02 04:00:35;;;;;;;1.77;1.33;;;21.30;99.90;;;;;;4209247;28;20480;-62
2022/08/02 04:02:36;;;;;;;2.42;1.75;;;21.60;99.90;;;;;;4206037;28;20054;-64
2022/08/02 04:04:38;;;;;;;2.10;1.70;;;21.80;99.90;;;;;;4205448;28;20040;-63
2022/08/02 04:06:39;;;;;;;3.35;1.90;;;22.10;99.90;;;;;;4204652;28;20748;-62
2022/08/02 04:08:40;;;;;;;1.95;1.75;;;22.30;99.90;;;;;;4205311;28;20040;-64
2022/08/02 04:13:01;;;;;;;1.92;1.52;;;22.70;99.90;;;;;;4205683;28;20032;-64
2022/08/02 04:15:04;;;;;;;3.92;1.70;;;23.00;99.90;;;;;;4204863;28;20362;-66
2022/08/02 04:17:08;;;;;;;1.58;1.30;;;23.30;99.90;;;;;;4204621;28;20036;-65
2022/08/02 04:19:30;;;;;;;2.63;1.48;;;23.70;99.90;;;;;;4206584;28;20065;-68
2022/08/02 04:21:35;;;;;;;1.40;1.30;;;24.30;99.90;;;;;;4205089;28;20481;-65
2022/08/02 04:23:37;;;;;;;1.33;0.98;;;24.70;99.90;;;;;;4210723;28;20146;-70
2022/08/02 04:25:39;;;;;;;1.80;1.45;;;25.00;99.90;;;;;;4205023;28;20082;-77
2022/08/02 04:27:40;;;;;;;1.63;1.25;;;25.40;99.90;;;;;;4204854;28;20093;-69
2022/08/02 04:29:43;;;;;;;2.20;2.00;;;25.70;99.90;;;;;;4203816;28;20491;-66
2022/08/02 04:31:44;;;;;;;2.60;1.23;;;25.40;99.90;;;;;;4205564;28;20096;-69
2022/08/02 04:33:46;;;;;;;2.15;1.30;;;25.80;99.90;;;;;;4204370;28;20044;-63
2022/08/02 04:35:47;;;;;;;2.40;0.95;;;26.20;99.90;;;;;;4205530;28;20036;-64
2022/08/02 04:37:49;;;;;;;3.97;1.95;;;26.70;99.90;;;;;;4203837;28;20097;-64
2022/08/02 04:39:51;;;;;;;4.20;1.85;;;26.80;99.90;;;;;;4204992;28;20090;-73
2022/08/02 04:41:52;;;;;;;1.80;1.60;;;27.00;99.90;;;;;;4203591;28;20045;-65
2022/08/02 04:43:54;;;;;;;3.35;1.50;;;27.00;99.90;;;;;;4205502;28;20100;-70
2022/08/02 04:45:55;;;;;;;3.58;1.10;;;27.10;99.70;;;;;;4204011;28;20556;-66
2022/08/02 04:47:56;;;;;;;1.80;1.00;;;27.10;99.50;;;;;;4205034;28;20032;-65
2022/08/02 04:49:57;;;;;;;2.67;1.25;;;27.30;99.20;;;;;;4205903;28;20032;-64
2022/08/02 04:51:59;;;;;;;2.13;1.67;;;27.50;98.80;;;;;;4204225;28;20028;-68
2022/08/02 04:54:01;;;;;;;1.70;1.40;;;27.60;98.30;;;;;;4204893;28;20044;-63
2022/08/02 04:56:03;;;;;;;2.90;1.15;;;27.90;97.80;;;;;;4197689;28;20104;-65
2022/08/02 04:58:04;;;;;;;2.92;1.52;;;28.30;97.40;;;;;;4206060;28;20543;-70
2022/08/02 05:00:07;;;;;;;4.38;1.30;;;28.50;96.90;;;;;;4203820;28;20052;-65
2022/08/02 05:02:08;;;;;;;1.73;1.63;;;28.50;96.50;;;;;;4204491;28;20039;-65
2022/08/02 05:04:10;;;;;;;3.20;1.10;;;28.20;96.20;;;;;;4185536;28;20086;-68
2022/08/02 05:06:11;;;;;;;1.17;1.08;;;27.90;96.20;;;;;;4204255;28;20086;-68
2022/08/02 05:08:12;;;;;;;2.55;1.52;;;28.10;96.10;;;;;;4203717;28;20028;-67
2022/08/02 05:10:13;;;;;;;3.22;1.45;;;28.40;95.60;;;;;;4205063;28;20035;-65
2022/08/02 05:12:15;;;;;;;1.92;1.33;;;28.50;95.20;;;;;;4203718;28;20396;-66
2022/08/02 05:14:16;;;;;;;2.47;1.20;;;28.90;94.90;;;;;;4205236;28;20032;-65
2022/08/02 05:16:17;;;;;;;2.75;1.33;;;29.20;94.40;;;;;;4203823;28;20047;-74
2022/08/02 05:18:18;;;;;;;3.10;1.20;;;29.10;94.00;;;;;;4206022;28;20486;-75
2022/08/02 05:20:20;;;;;;;2.03;1.48;;;29.30;93.60;;;;;;4205146;28;20109;-68
2022/08/02 05:22:21;;;;;;;3.00;1.08;;;29.20;93.40;;;;;;4204239;28;20082;-72
2022/08/02 05:24:22;;;;;;;3.40;1.15;;;28.70;93.30;;;;;;4169191;28;20552;-65
2022/08/02 05:26:23;;;;;;;6.07;1.45;;;28.90;93.40;;;;;;4197994;28;20093;-63
2022/08/02 05:28:24;;;;;;;2.17;1.45;;;29.30;92.90;;;;;;4209740;28;20472;-62
2022/08/02 05:30:25;;;;;;;3.65;1.83;;;29.20;92.70;;;;;;4209460;28;20040;-63
2022/08/02 05:32:26;;;;;;;2.83;1.73;;;29.00;92.50;;;;;;4212165;28;20102;-64
2022/08/02 05:34:28;;;;;;;2.17;1.23;;;29.20;92.40;;;;;;4212017;28;20132;-70
2022/08/02 05:36:29;;;;;;;2.05;1.20;;;28.70;92.20;;;;;;4213257;28;20395;-66
2022/08/02 05:38:31;;;;;;;2.90;1.50;;;28.00;92.70;;;;;;4211347;28;20040;-72
2022/08/02 05:40:32;;;;;;;2.05;1.60;;;27.70;93.00;;;;;;4213713;28;20089;-63
2022/08/02 05:42:33;;;;;;;5.45;4.40;;;27.10;93.20;;;;;;4212206;28;20028;-65
2022/08/02 05:44:34;;;;;;;2.28;1.55;;;26.40;94.00;;;;;;4212618;28;20040;-64
2022/08/02 05:46:36;;;;;;;5.97;1.35;;;26.30;94.40;;;;;;4211270;28;20097;-72
2022/08/02 05:48:37;;;;;;;2.55;1.50;;;26.10;94.50;;;;;;4195140;28;20017;-64
2022/08/02 05:50:45;;;;;;;4.30;1.90;;;26.40;94.60;;;;;;4210944;28;20090;-67
2022/08/02 05:53:23;;;;;;;2.92;1.67;;;26.60;94.30;;;;;;4212489;28;20044;-65
2022/08/02 05:55:33;;;;;;;2.05;1.77;;;26.70;93.30;;;;;;4199214;28;20549;-64
2022/08/02 05:57:53;;;;;;;;;;;26.70;93.90;;;;;;4213055;28;20040;-64
2022/08/02 06:00:06;;;;;;;2.42;1.67;;;26.90;93.40;;;;;;4211001;28;19961;-65
2022/08/02 06:02:23;;;;;;;4.60;1.95;;;27.30;93.80;;;;;;4213128;28;20081;-65
2022/08/02 06:04:30;;;;;;;4.45;1.60;;;27.70;93.00;;;;;;4212006;28;20437;-65
2022/08/02 06:06:32;;;;;;;2.33;1.40;;;27.90;92.90;;;;;;4212966;28;20085;-64
2022/08/02 06:08:45;;;;;;;2.35;1.45;;;28.30;92.70;;;;;;4211769;28;20069;-65
2022/08/02 06:10:47;;;;;;;3.13;1.90;;;28.40;92.20;;;;;;4212617;28;20442;-65
2022/08/02 06:12:53;;;;;;;5.70;1.90;;;28.50;92.30;;;;;;4211561;28;20036;-66
2022/08/02 06:14:55;;;;;;;1.80;1.35;;;28.70;91.90;;;;;;4212211;28;20550;-64
2022/08/02 06:16:57;;;;;;;5.88;2.10;;;29.00;91.70;;;;;;4211681;28;20027;-64
2022/08/02 06:18:59;;;;;;;2.90;1.50;;;29.10;91.60;;;;;;4212709;28;20028;-64
2022/08/02 06:21:02;;;;;;;3.75;1.90;;;29.60;91.50;;;;;;4210621;28;20549;-64
2022/08/02 06:23:06;;;;;;;1.80;1.70;;;30.50;90.80;;;;;;4212677;28;20024;-63
2022/08/02 06:25:11;;;;;;;2.72;1.52;;;30.90;90.10;;;;;;4211617;28;20078;-65
2022/08/02 06:27:14;;;;;;;1.92;1.73;;;31.30;89.60;;;;;;4211475;28;20032;-64
2022/08/02 06:29:15;;;;;;;1.73;1.60;;;31.50;88.80;;;;;;4211950;28;20020;-65
2022/08/02 06:31:16;;;;;;;2.72;1.73;;;31.00;88.70;;;;;;4212295;28;20040;-64
2022/08/02 06:33:17;;;;;;;3.72;1.63;;;30.90;89.40;;;;;;4210820;28;20479;-64
2022/08/02 06:35:19;;;;;;;19.23;4.45;;;30.70;89.00;;;;;;4211017;28;20044;-64
2022/08/02 06:37:26;;;;;;;15.60;2.28;;;29.80;90.10;;;;;;4211634;28;20086;-65
2022/08/02 06:39:33;;;;;;;5.75;2.30;;;29.20;90.90;;;;;;4211720;28;20035;-65
2022/08/02 06:41:41;;;;;;;4.93;1.92;;;28.40;91.30;;;;;;4212372;28;20456;-72
2022/08/02 06:44:02;;;;;;;87.10;13.25;;;28.30;91.70;;;;;;4192786;28;20444;-65
2022/08/02 06:46:03;;;;;;;14.55;2.95;;;27.80;91.80;;;;;;4212063;28;20027;-66
2022/08/02 06:48:05;;;;;;;2.63;1.73;;;27.70;92.50;;;;;;4211326;28;20050;-65
2022/08/02 06:50:07;;;;;;;19.42;3.55;;;27.50;92.70;;;;;;4212185;28;20089;-65
2022/08/02 06:52:08;;;;;;;2.38;1.38;;;27.00;92.90;;;;;;4192501;28;20060;-69
2022/08/02 06:54:10;;;;;;;3.88;1.90;;;27.00;93.10;;;;;;4211307;28;20101;-65
2022/08/02 06:56:11;;;;;;;5.78;2.20;;;26.90;93.30;;;;;;4210668;28;20086;-65
2022/08/02 06:58:13;;;;;;;2.28;1.35;;;27.30;93.00;;;;;;4211769;28;20434;-68
2022/08/02 07:00:14;;;;;;;4.13;1.52;;;27.30;92.80;;;;;;4211086;28;20028;-64
2022/08/02 07:02:15;;;;;;;4.00;1.30;;;27.10;92.80;;;;;;4212311;28;20070;-65
2022/08/02 07:04:17;;;;;;;1.25;1.15;;;27.10;93.00;;;;;;4209928;28;20093;-65
2022/08/02 07:06:18;;;;;;;3.28;1.50;;;27.30;92.80;;;;;;4211025;28;20070;-64
2022/08/02 07:08:19;;;;;;;1.15;1.00;;;27.60;92.70;;;;;;4210053;28;20035;-64
2022/08/02 07:10:20;;;;;;;1.75;1.63;;;27.80;92.50;;;;;;4211765;28;20105;-63
2022/08/02 07:12:21;;;;;;;2.45;1.40;;;27.70;92.40;;;;;;4210873;28;20082;-64
2022/08/02 07:14:23;;;;;;;2.22;1.20;;;27.70;92.50;;;;;;4211169;28;20028;-65
2022/08/02 07:16:24;;;;;;;1.63;1.30;;;27.90;92.50;;;;;;4211460;28;20036;-63
2022/08/02 07:18:25;;;;;;;3.08;1.13;;;28.10;92.00;;;;;;4210804;28;20036;-65
2022/08/02 07:20:26;;;;;;;1.80;1.20;;;28.00;92.10;;;;;;4211043;28;20066;-71
2022/08/02 07:22:28;;;;;;;2.25;1.00;;;27.90;92.10;;;;;;4210521;28;20430;-65
2022/08/02 07:24:29;;;;;;;2.15;1.20;;;27.80;92.20;;;;;;4211690;28;20036;-63
2022/08/02 07:26:30;;;;;;;1.02;0.80;;;27.50;92.20;;;;;;4209447;28;20105;-64
2022/08/02 07:28:31;;;;;;;17.02;4.68;;;27.40;92.50;;;;;;4210487;28;20066;-72
2022/08/02 07:30:32;;;;;;;7.57;1.67;;;27.60;92.50;;;;;;4209665;28;20040;-64
2022/08/02 07:32:33;;;;;;;2.15;1.00;;;27.70;92.90;;;;;;4211572;28;20044;-64
2022/08/02 07:34:35;;;;;;;4.53;1.60;;;27.70;92.40;;;;;;4210595;28;20430;-64
2022/08/02 07:36:36;;;;;;;3.17;1.20;;;27.30;92.40;;;;;;4211693;28;20107;-65
2022/08/02 07:38:37;;;;;;;1.13;1.02;;;27.00;93.00;;;;;;4209197;28;20475;-68
2022/08/02 07:40:38;;;;;;;1.30;1.20;;;27.10;93.00;;;;;;4211743;28;20448;-64
2022/08/02 07:42:40;;;;;;;1.50;1.30;;;27.20;92.80;;;;;;4210211;28;20020;-64
2022/08/02 07:44:41;;;;;;;2.35;1.30;;;27.40;92.60;;;;;;4210910;28;20029;-64
2022/08/02 07:46:43;;;;;;;1.30;1.20;;;27.70;92.40;;;;;;4210614;28;20082;-64
2022/08/02 07:48:46;;;;;;;3.47;1.30;;;27.80;92.10;;;;;;4210485;28;20089;-64
2022/08/02 07:50:48;;;;;;;2.75;1.50;;;27.90;91.90;;;;;;4210880;28;20028;-65
2022/08/02 07:52:49;;;;;;;3.40;1.30;;;27.50;92.10;;;;;;4191197;28;20074;-66
2022/08/02 07:54:50;;;;;;;37.88;4.43;;;27.40;92.10;;;;;;4211268;28;20023;-65
2022/08/02 07:56:53;;;;;;;11.68;1.90;;;27.00;92.30;;;;;;4210235;28;20077;-64
2022/08/02 07:58:54;;;;;;;2.78;1.42;;;26.70;92.70;;;;;;4211243;28;20089;-70
2022/08/02 08:00:55;;;;;;;5.38;1.75;;;26.50;92.60;;;;;;4210064;28;20016;-64
2022/08/02 08:02:56;;;;;;;36.63;5.88;;;26.20;93.10;;;;;;4192527;28;20044;-64
2022/08/02 08:04:57;;;;;;;2.35;1.17;;;26.30;93.30;;;;;;4209843;28;20081;-64
2022/08/02 08:06:58;;;;;;;4.32;1.52;;;26.60;93.00;;;;;;4210032;28;20044;-65
2022/08/02 08:08:59;;;;;;;4.78;1.60;;;26.90;92.70;;;;;;4191631;28;20473;-63
2022/08/02 08:11:01;;;;;;;2.95;0.95;;;27.00;92.60;;;;;;4211450;28;20028;-64
2022/08/02 08:13:02;;;;;;;2.78;1.13;;;26.70;92.30;;;;;;4210342;28;20032;-66
2022/08/02 08:15:03;;;;;;;1.90;1.10;;;26.60;92.50;;;;;;4209708;28;20104;-67
2022/08/02 08:17:06;;;;;;;1.25;1.15;;;26.60;92.50;;;;;;4210661;28;20032;-69
2022/08/02 08:19:07;;;;;;;2.83;1.00;;;26.70;92.10;;;;;;4209459;28;20472;-65
2022/08/02 08:21:08;;;;;;;1.48;1.38;;;26.30;92.20;;;;;;4210554;28;20078;-69
2022/08/02 08:23:10;;;;;;;4.75;1.10;;;26.40;92.60;;;;;;4209942;28;20425;-72
2022/08/02 08:25:11;;;;;;;3.28;1.55;;;26.50;92.30;;;;;;4210991;28;20426;-74
2022/08/02 08:27:14;;;;;;;2.75;1.02;;;26.70;92.00;;;;;;4209725;28;20506;-66
2022/08/02 08:29:15;;;;;;;1.00;1.00;;;26.80;91.80;;;;;;4210892;28;20077;-64
2022/08/02 08:31:16;;;;;;;7.50;1.58;;;27.00;91.70;;;;;;4209627;28;20036;-68
2022/08/02 08:33:17;;;;;;;1.50;1.17;;;27.10;91.20;;;;;;4210515;28;20105;-67
2022/08/02 08:35:18;;;;;;;1.05;0.95;;;27.00;91.40;;;;;;4209440;28;20032;-64
2022/08/02 08:37:19;;;;;;;2.78;1.42;;;27.10;91.30;;;;;;4209704;28;20041;-71
2022/08/02 08:39:21;;;;;;;2.03;1.20;;;27.30;91.20;;;;;;4191228;28;20040;-66
2022/08/02 08:41:22;;;;;;;1.48;0.82;;;27.40;90.70;;;;;;4210757;28;20395;-65
2022/08/02 08:43:23;;;;;;;2.08;0.82;;;27.40;90.80;;;;;;4209715;28;20408;-67
2022/08/02 08:45:24;;;;;;;2.63;1.00;;;27.40;90.60;;;;;;4210243;28;20082;-78
2022/08/02 08:47:37;;;;;;;3.38;1.00;;;27.10;90.40;;;;;;4209903;28;20036;-63
2022/08/02 08:49:46;;;;;;;2.53;1.90;;;27.10;89.70;;;;;;4210286;28;20365;-73
2022/08/02 08:51:50;;;;;;;7.75;1.58;;;27.20;90.00;;;;;;4210006;28;20525;-65
2022/08/02 08:53:53;;;;;;;5.70;1.40;;;27.00;90.20;;;;;;4209921;28;20370;-64
2022/08/02 08:55:56;;;;;;;7.95;2.30;;;27.00;90.20;;;;;;4209534;28;20105;-67
2022/08/02 08:57:59;;;;;;;4.93;1.55;;;27.00;90.10;;;;;;4191954;28;20488;-65
2022/08/02 09:00:02;;;;;;;3.38;1.30;;;26.70;88.80;;;;;;4210634;28;20093;-66
2022/08/02 09:02:03;;;;;;;4.50;1.02;;;26.70;89.60;;;;;;4209462;28;20028;-65
2022/08/02 09:04:05;;;;;;;18.52;7.75;;;26.80;88.80;;;;;;4210475;28;20032;-63
2022/08/02 09:06:06;;;;;;;5.68;3.72;;;26.70;88.30;;;;;;4211529;28;20141;-72
2022/08/02 09:08:07;;;;;;;5.53;2.17;;;26.80;88.20;;;;;;4194967;28;20040;-64
2022/08/02 09:10:36;;;;;;;1.55;1.33;;;27.00;87.50;;;;;;4213241;28;20032;-64
2022/08/02 09:12:37;;;;;;;1.77;1.00;;;27.20;84.70;;;;;;4212965;28;20094;-68
2022/08/02 09:14:38;;;;;;;1.08;1.00;;;27.30;86.30;;;;;;4212290;28;20458;-75
2022/08/02 09:16:42;;;;;;;3.22;0.90;;;27.40;86.20;;;;;;4212372;28;20480;-64
2022/08/02 09:18:45;;;;;;;1.05;0.95;;;27.30;85.80;;;;;;4212376;28;20460;-68
2022/08/02 09:20:56;;;;;;;0.80;0.75;;;27.20;85.60;;;;;;4212843;28;20040;-66
2022/08/02 09:23:11;;;;;;;2.13;0.90;;;27.30;84.70;;;;;;4211602;28;20040;-68
2022/08/02 09:25:15;;;;;;;1.17;0.88;;;27.40;84.30;;;;;;4212632;28;20074;-65
2022/08/02 09:27:19;;;;;;;17.27;2.55;;;27.30;84.30;;;;;;4212117;28;20028;-67
2022/08/02 09:29:23;;;;;;;4.00;1.17;;;27.40;84.30;;;;;;4213582;28;20472;-65
2022/08/02 09:31:25;;;;;;;1.15;0.88;;;27.10;84.40;;;;;;4212126;28;20031;-68
2022/08/02 09:33:27;;;;;;;2.53;0.95;;;26.90;84.00;;;;;;4213386;28;20040;-64
2022/08/02 09:35:32;;;;;;;1.30;0.98;;;26.80;82.30;;;;;;4212132;28;20028;-64
2022/08/02 09:37:33;;;;;;;0.90;0.90;;;26.80;81.20;;;;;;4213051;28;20028;-68
2022/08/02 09:39:43;;;;;;;14.52;2.65;;;26.70;82.20;;;;;;4212387;28;20024;-69
2022/08/02 09:41:44;;;;;;;4.88;1.63;;;26.70;82.70;;;;;;4213209;28;20028;-72
2022/08/02 09:43:45;;;;;;;3.13;1.00;;;26.90;83.00;;;;;;4211293;28;20048;-65
2022/08/02 09:45:47;;;;;;;1.33;0.90;;;27.00;82.40;;;;;;4211361;28;20040;-66
2022/08/02 09:47:48;;;;;;;2.45;0.82;;;27.10;81.70;;;;;;4212393;28;20040;-72
2022/08/02 09:49:50;;;;;;;2.13;0.80;;;27.10;81.90;;;;;;4211203;28;20036;-77
2022/08/02 09:51:53;;;;;;;1.33;1.20;;;27.10;81.50;;;;;;4194034;28;20109;-73
2022/08/02 09:53:57;;;;;;;11.95;1.58;;;27.20;81.30;;;;;;4210896;28;20043;-73
2022/08/02 09:55:58;;;;;;;1.60;0.82;;;27.10;81.80;;;;;;4212212;28;20036;-66
2022/08/02 09:58:16;;;;;;;3.88;0.93;;;26.90;83.10;;;;;;4211950;28;20105;-73
2022/08/02 10:00:18;;;;;;;1.98;1.10;;;26.90;80.80;;;;;;4213126;28;20028;-66
2022/08/02 10:02:19;;;;;;;1.55;1.10;;;26.90;81.60;;;;;;4211350;28;20464;-74
2022/08/02 10:04:23;;;;;;;0.95;0.90;;;26.90;82.10;;;;;;4212573;28;20081;-66
2022/08/02 10:06:25;;;;;;;1.27;0.88;;;26.80;82.50;;;;;;4211058;28;20039;-69
2022/08/02 10:08:31;;;;;;;1.55;1.00;;;26.90;82.10;;;;;;4212921;28;20025;-71
2022/08/02 10:10:32;;;;;;;1.52;0.90;;;27.10;81.00;;;;;;4212066;28;20020;-68
2022/08/02 10:12:36;;;;;;;0.60;0.60;;;27.20;80.80;;;;;;4212941;28;20032;-66
2022/08/02 10:14:38;;;;;;;10.20;1.55;;;27.10;80.00;;;;;;4212309;28;20032;-65
2022/08/02 10:16:41;;;;;;;6.38;1.33;;;27.10;78.90;;;;;;4212567;28;20036;-67
2022/08/02 10:18:43;;;;;;;30.85;3.10;;;26.90;77.60;;;;;;4211591;28;20110;-75
2022/08/02 10:20:45;;;;;;;2.88;1.10;;;26.90;78.30;;;;;;4211711;28;20036;-71
2022/08/02 10:22:47;;;;;;;0.93;0.82;;;27.10;78.20;;;;;;4210503;28;20557;-66
2022/08/02 10:24:49;;;;;;;2.45;0.77;;;27.20;78.10;;;;;;4212269;28;20024;-68
2022/08/02 10:26:51;;;;;;;0.70;0.70;;;27.30;77.30;;;;;;4211905;28;20035;-67
2022/08/02 10:28:53;;;;;;;4.13;0.82;;;27.30;76.70;;;;;;4211717;28;20490;-68
2022/08/02 10:30:56;;;;;;;1.77;1.13;;;27.30;76.10;;;;;;4211766;28;20097;-70
2022/08/02 10:32:59;;;;;;;1.40;0.90;;;27.40;75.70;;;;;;4211194;28;20442;-70
2022/08/02 10:35:10;;;;;;;11.75;2.45;;;27.40;75.00;;;;;;4212443;28;20535;-74
2022/08/02 10:37:13;;;;;;;7.72;1.60;;;27.10;72.90;;;;;;4211407;28;20028;-75
2022/08/02 10:39:14;;;;;;;17.92;2.33;;;26.80;75.20;;;;;;4212758;28;20024;-73
2022/08/02 10:41:39;;;;;;;12.38;2.05;;;26.70;75.70;;;;;;4211825;28;20093;-68
2022/08/02 10:43:46;;;;;;;14.57;2.88;;;26.80;73.60;;;;;;4212341;28;20053;-64
2022/08/02 10:45:49;;;;;;;28.20;3.88;;;26.80;75.00;;;;;;4211146;28;20024;-64